Time;durP1;ratioP1;P1;durP2;ratioP2;P2;SDS_P1;SDS_P2;PMS_P1;PMS_P2;Temp;Humidity;BMP_temperature;BMP_pressure;BME280_temperature;BME280_humidity;BME280_pressure;Samples;Min_cycle;Max_cycle;Signal;HPM_P1;HPM_P2
2023/05/30 00:00:18;;;;;;;6.25;4.47;;;;;;;9.96;100.00;93203.38;2092816;28;20534;-83
2023/05/30 00:01:28;;;;;;;6.43;4.65;;;;;;;9.83;100.00;93190.66;2105978;28;20089;-85
2023/05/30 00:02:38;;;;;;;7.43;4.45;;;;;;;9.80;100.00;93188.03;2093328;28;20601;-82
2023/05/30 00:03:48;;;;;;;;;;;;;;;9.76;100.00;93188.09;2087800;28;20118;-81
2023/05/30 00:04:58;;;;;;;6.15;4.57;;;;;;;9.69;100.00;93190.13;2098061;28;19916;-81
2023/05/30 00:06:08;;;;;;;6.55;4.22;;;;;;;9.67;100.00;93192.47;2105806;28;20031;-80
2023/05/30 00:07:20;;;;;;;6.25;4.57;;;;;;;9.64;100.00;93194.03;2099468;28;20063;-82
2023/05/30 00:08:32;;;;;;;8.95;4.50;;;;;;;9.71;100.00;93185.91;2099713;28;20035;-83
2023/05/30 00:09:44;;;;;;;7.20;4.38;;;;;;;9.64;100.00;93185.25;2089376;28;20028;-83
2023/05/30 00:10:54;;;;;;;11.68;5.32;;;;;;;9.63;100.00;93194.44;2091049;28;20037;-84
2023/05/30 00:12:04;;;;;;;5.25;4.40;;;;;;;9.58;100.00;93188.41;2089863;28;20092;-85
2023/05/30 00:13:12;;;;;;;;;;;;;;;9.55;100.00;93186.53;2097336;28;20021;-83
2023/05/30 00:14:26;;;;;;;6.05;4.10;;;;;;;9.57;100.00;93191.50;2100453;28;20015;-85
2023/05/30 00:15:36;;;;;;;5.32;4.78;;;;;;;9.52;100.00;93189.25;2095604;28;20117;-84
2023/05/30 00:16:49;;;;;;;9.60;4.78;;;;;;;9.54;100.00;93185.03;2093458;28;20046;-83
2023/05/30 00:18:00;;;;;;;6.68;5.03;;;;;;;9.59;100.00;93186.50;2102101;28;20117;-81
2023/05/30 00:19:10;;;;;;;8.98;4.88;;;;;;;9.49;100.00;93198.09;2098090;28;20149;-83
2023/05/30 00:20:22;;;;;;;8.30;4.60;;;;;;;9.52;100.00;93194.59;2099930;28;20024;-83
2023/05/30 00:21:33;;;;;;;7.85;4.53;;;;;;;9.50;100.00;93195.03;2100384;28;20037;-83
2023/05/30 00:22:46;;;;;;;6.78;4.95;;;;;;;9.51;100.00;93185.84;2101469;28;20036;-82
2023/05/30 00:23:56;;;;;;;6.18;4.57;;;;;;;9.50;100.00;93183.59;2095418;28;20028;-83
2023/05/30 00:25:06;;;;;;;9.30;4.68;;;;;;;9.51;100.00;93191.19;2097961;28;20112;-81
2023/05/30 00:26:30;;;;;;;7.25;4.10;;;;;;;9.66;100.00;93185.59;2105215;28;20032;-82
2023/05/30 00:27:39;;;;;;;6.25;4.70;;;;;;;9.52;100.00;93190.00;2101781;28;20040;-83
2023/05/30 00:28:49;;;;;;;6.13;4.93;;;;;;;9.48;100.00;93188.56;2093958;28;20108;-83
2023/05/30 00:29:58;;;;;;;6.75;5.10;;;;;;;9.54;100.00;93195.72;2085873;28;20029;-83
2023/05/30 00:31:08;;;;;;;12.57;4.63;;;;;;;9.49;100.00;93190.84;2096842;28;20409;-80
2023/05/30 00:32:18;;;;;;;5.35;4.80;;;;;;;9.52;100.00;93190.00;2093744;28;20035;-80
2023/05/30 00:33:31;;;;;;;7.40;5.30;;;;;;;9.51;100.00;93195.78;2090267;28;20072;-82
2023/05/30 00:34:40;;;;;;;8.00;5.18;;;;;;;9.42;100.00;93193.63;2086190;28;20074;-82
2023/05/30 00:35:50;;;;;;;10.75;4.63;;;;;;;9.46;100.00;93197.00;2094388;28;20119;-82
2023/05/30 00:36:56;;;;;;;;;;;;;;;9.54;100.00;93198.38;2089991;28;20033;-83
2023/05/30 00:38:05;;;;;;;5.32;4.82;;;;;;;9.52;100.00;93192.69;2095411;28;19939;-81
2023/05/30 00:39:16;;;;;;;7.10;4.85;;;;;;;9.60;100.00;93196.00;2096488;28;20056;-80
2023/05/30 00:40:29;;;;;;;7.22;4.90;;;;;;;9.58;100.00;93201.75;2094535;28;20490;-85
2023/05/30 00:41:36;;;;;;;8.88;5.28;;;;;;;9.69;100.00;93188.22;2093322;28;20024;-81
2023/05/30 00:42:46;;;;;;;6.75;4.63;;;;;;;9.74;100.00;93195.00;2093394;28;20028;-83
2023/05/30 00:43:55;;;;;;;9.90;5.38;;;;;;;9.71;100.00;93196.59;2095849;28;20485;-81
2023/05/30 00:45:05;;;;;;;6.28;4.57;;;;;;;9.73;100.00;93204.16;2093358;28;20025;-84
2023/05/30 00:46:20;;;;;;;8.75;5.10;;;;;;;9.83;100.00;93195.22;2086413;28;20501;-82
2023/05/30 00:47:33;;;;;;;9.07;5.00;;;;;;;9.96;100.00;93193.44;2095678;28;20083;-81
2023/05/30 00:48:46;;;;;;;11.00;4.80;;;;;;;10.00;100.00;93193.41;2101472;28;20028;-81
2023/05/30 00:49:57;;;;;;;7.18;4.85;;;;;;;10.04;100.00;93197.50;2095563;28;20754;-84
2023/05/30 00:51:12;;;;;;;9.60;5.05;;;;;;;9.94;100.00;93189.69;2101344;28;20131;-85
2023/05/30 00:52:25;;;;;;;6.90;4.63;;;;;;;9.93;100.00;93193.53;2109395;28;20096;-82
2023/05/30 00:53:36;;;;;;;10.38;5.30;;;;;;;9.92;100.00;93190.13;2100056;28;20028;-80
2023/05/30 00:54:48;;;;;;;9.13;4.95;;;;;;;9.96;100.00;93198.78;2096105;28;20492;-83
2023/05/30 00:55:59;;;;;;;7.60;5.10;;;;;;;9.99;100.00;93197.97;2093250;28;20021;-82
2023/05/30 00:57:07;;;;;;;8.55;5.15;;;;;;;9.89;100.00;93190.19;2094414;28;20060;-83
2023/05/30 00:58:18;;;;;;;6.70;4.88;;;;;;;9.92;100.00;93186.66;2092682;28;20365;-83
2023/05/30 00:59:32;;;;;;;8.30;5.28;;;;;;;9.91;100.00;93185.16;2096422;28;20131;-84
2023/05/30 01:00:41;;;;;;;9.05;5.07;;;;;;;9.90;100.00;93181.75;2100865;28;20369;-81
2023/05/30 01:01:51;;;;;;;10.02;5.32;;;;;;;9.91;100.00;93187.84;2101794;28;20020;-83
2023/05/30 01:03:00;;;;;;;8.18;5.22;;;;;;;9.84;100.00;93189.50;2103971;28;20064;-80
2023/05/30 01:04:12;;;;;;;5.97;4.78;;;;;;;9.85;100.00;93184.91;2099214;28;20683;-83
2023/05/30 01:05:24;;;;;;;10.60;5.18;;;;;;;9.79;100.00;93187.28;2099025;28;20404;-83
2023/05/30 01:06:32;;;;;;;8.65;4.90;;;;;;;9.72;100.00;93192.00;2093835;28;20104;-81
2023/05/30 01:07:48;;;;;;;7.68;4.80;;;;;;;9.80;100.00;93193.38;2096485;28;20024;-83
2023/05/30 01:08:56;;;;;;;11.20;4.75;;;;;;;9.81;100.00;93189.53;2101133;28;20484;-82
2023/05/30 01:10:09;;;;;;;11.07;5.40;;;;;;;9.71;100.00;93193.91;2092872;28;20541;-82
2023/05/30 01:11:41;;;;;;;7.70;4.93;;;;;;;9.72;100.00;93190.06;2094600;28;20355;-81
2023/05/30 01:12:53;;;;;;;7.85;4.88;;;;;;;9.69;100.00;93192.81;2108096;28;20034;-84
2023/05/30 01:14:12;;;;;;;7.35;5.10;;;;;;;9.65;100.00;93194.78;2108823;28;20032;-83
2023/05/30 01:15:42;;;;;;;6.78;5.15;;;;;;;9.67;100.00;93198.56;2095827;28;20024;-82
2023/05/30 01:16:51;;;;;;;;;;;;;;;9.57;100.00;93202.91;2094358;28;20040;-81
2023/05/30 01:18:30;;;;;;;10.18;5.00;;;;;;;9.72;100.00;93205.34;2095159;28;20358;-82
2023/05/30 01:19:54;;;;;;;7.70;4.95;;;;;;;9.73;100.00;93196.16;2079905;28;20131;-82
2023/05/30 01:21:12;;;;;;;8.57;4.72;;;;;;;9.84;100.00;93197.50;2085668;28;20031;-80
2023/05/30 01:22:49;;;;;;;9.30;5.18;;;;;;;9.83;100.00;93198.66;2102465;28;20020;-84
2023/05/30 01:24:36;;;;;;;7.75;4.93;;;;;;;9.81;100.00;93194.88;2099691;28;20036;-81
2023/05/30 01:26:17;;;;;;;7.10;4.78;;;;;;;9.81;100.00;93192.22;2113508;27;20079;-82
2023/05/30 01:27:51;;;;;;;7.88;5.30;;;;;;;10.04;100.00;93200.19;2098502;28;20108;-82
2023/05/30 01:29:03;;;;;;;8.07;5.43;;;;;;;9.94;100.00;93195.03;2086613;28;20139;-83
2023/05/30 01:30:15;;;;;;;10.55;5.18;;;;;;;10.00;100.00;93196.81;2092357;28;20025;-83
2023/05/30 01:31:25;;;;;;;8.63;5.38;;;;;;;10.11;100.00;93195.88;2096042;28;20021;-80
2023/05/30 01:32:36;;;;;;;11.15;5.70;;;;;;;10.19;100.00;93189.25;2093038;28;21023;-81
2023/05/30 01:33:44;;;;;;;;;;;;;;;10.23;100.00;93203.28;2102390;28;20027;-83
2023/05/30 01:34:57;;;;;;;9.43;5.15;;;;;;;10.23;100.00;93196.03;2104175;28;19962;-85
2023/05/30 01:36:07;;;;;;;7.68;4.82;;;;;;;10.30;100.00;93195.16;2097146;28;20075;-82
2023/05/30 01:37:12;;;;;;;;;;;;;;;10.24;100.00;93197.56;2095760;28;20066;-83
2023/05/30 01:38:22;;;;;;;8.15;4.97;;;;;;;10.31;100.00;93199.31;2092877;28;19966;-82
2023/05/30 01:39:32;;;;;;;8.55;5.57;;;;;;;10.40;100.00;93196.09;2088131;28;20021;-84
2023/05/30 01:40:43;;;;;;;8.93;5.47;;;;;;;10.40;100.00;93196.09;2087984;28;20028;-80
2023/05/30 01:42:11;;;;;;;8.20;5.60;;;;;;;10.38;100.00;93195.78;2092584;28;20496;-82
2023/05/30 01:43:41;;;;;;;6.88;5.50;;;;;;;10.46;100.00;93194.47;2092486;28;20021;-83
2023/05/30 01:45:16;;;;;;;8.00;5.45;;;;;;;10.40;100.00;93199.53;2092229;28;20495;-80
2023/05/30 01:46:38;;;;;;;8.32;5.38;;;;;;;10.42;100.00;93197.22;2093046;28;20429;-82
2023/05/30 01:48:18;;;;;;;13.48;5.22;;;;;;;10.44;100.00;93194.88;2096606;28;20102;-82
2023/05/30 01:49:35;;;;;;;6.63;5.05;;;;;;;10.41;100.00;93195.72;2108397;28;20055;-81
2023/05/30 01:50:42;;;;;;;10.93;5.32;;;;;;;10.43;100.00;93203.31;2112665;27;20555;-81
2023/05/30 01:52:07;;;;;;;10.13;5.45;;;;;;;10.35;100.00;93197.34;2097961;28;20012;-82
2023/05/30 01:53:25;;;;;;;10.15;5.50;;;;;;;10.37;100.00;93197.69;2102494;28;20044;-82
2023/05/30 01:54:38;;;;;;;7.78;5.60;;;;;;;10.59;100.00;93206.03;2108905;28;20031;-85
2023/05/30 01:55:51;;;;;;;9.48;5.60;;;;;;;10.53;100.00;93194.31;2098430;28;20085;-80
2023/05/30 01:57:18;;;;;;;8.40;5.28;;;;;;;10.44;100.00;93204.81;2094428;28;20063;-82
2023/05/30 01:58:33;;;;;;;6.28;5.13;;;;;;;10.34;100.00;93206.53;2101816;28;20456;-83
2023/05/30 01:59:44;;;;;;;10.15;5.53;;;;;;;10.31;100.00;93202.75;2102169;28;20027;-82
2023/05/30 02:00:55;;;;;;;8.63;5.15;;;;;;;10.24;100.00;93208.25;2100318;28;20055;-84
2023/05/30 02:02:06;;;;;;;7.90;5.32;;;;;;;10.19;100.00;93203.34;2099975;28;20020;-82
2023/05/30 02:03:17;;;;;;;7.43;5.22;;;;;;;10.19;100.00;93215.97;2083771;28;20574;-81
2023/05/30 02:04:29;;;;;;;8.07;5.43;;;;;;;10.25;100.00;93211.66;2093633;28;20040;-81
2023/05/30 02:05:39;;;;;;;8.05;5.82;;;;;;;10.28;100.00;93208.94;2100768;28;20024;-83
2023/05/30 02:06:46;;;;;;;;;;;;;;;10.19;100.00;93207.94;2102677;28;20135;-80
2023/05/30 02:07:56;;;;;;;8.73;5.50;;;;;;;10.15;100.00;93210.69;2102872;28;20399;-81
2023/05/30 02:09:06;;;;;;;9.00;5.60;;;;;;;10.12;100.00;93208.06;2100814;28;20115;-83
2023/05/30 02:10:19;;;;;;;10.77;6.18;;;;;;;10.15;100.00;93209.94;2096307;28;20070;-82
2023/05/30 02:11:29;;;;;;;10.52;5.28;;;;;;;10.20;100.00;93212.13;2095113;28;21110;-86
2023/05/30 02:12:38;;;;;;;9.60;5.15;;;;;;;10.18;100.00;93211.75;2088507;28;20036;-82
2023/05/30 02:13:50;;;;;;;8.95;5.35;;;;;;;10.17;100.00;93205.66;2093410;28;20032;-84
2023/05/30 02:15:00;;;;;;;9.82;5.97;;;;;;;10.31;100.00;93212.69;2100531;28;20028;-83
2023/05/30 02:16:10;;;;;;;10.35;6.25;;;;;;;10.33;100.00;93205.03;2093156;28;20027;-81
2023/05/30 02:17:20;;;;;;;10.32;5.93;;;;;;;10.39;100.00;93211.38;2107887;28;20029;-83
2023/05/30 02:18:31;;;;;;;7.53;5.57;;;;;;;10.39;100.00;93208.72;2095242;28;20040;-81
2023/05/30 02:46:52;;;;;;;11.20;6.85;;;;;;;9.89;100.00;93208.88;2618101;22;20023;-84
2023/05/30 02:48:02;;;;;;;8.60;6.07;;;;;;;9.88;100.00;93207.34;2595902;22;20440;-83
2023/05/30 02:49:11;;;;;;;13.07;6.18;;;;;;;9.88;100.00;93210.78;2574630;22;20444;-81
2023/05/30 02:50:21;;;;;;;8.38;5.70;;;;;;;9.87;100.00;93205.84;2597709;22;20008;-84
2023/05/30 02:51:32;;;;;;;19.35;6.65;;;;;;;9.90;100.00;93205.78;2608567;22;20034;-85
2023/05/30 02:52:41;;;;;;;11.48;6.55;;;;;;;9.93;100.00;93204.22;2585427;22;20086;-83
2023/05/30 02:53:51;;;;;;;10.88;6.18;;;;;;;9.94;100.00;93205.72;2586665;22;20008;-83
2023/05/30 02:55:01;;;;;;;9.15;6.10;;;;;;;9.89;100.00;93203.53;2608567;22;20007;-82
2023/05/30 02:56:08;;;;;;;;;;;;;;;9.79;100.00;93200.63;2596006;22;20069;-84
2023/05/30 02:57:19;;;;;;;14.32;6.07;;;;;;;9.89;100.00;93206.94;2585873;22;20329;-82
2023/05/30 02:58:28;;;;;;;8.00;6.03;;;;;;;9.84;100.00;93212.75;2585128;22;20004;-84
2023/05/30 02:59:40;;;;;;;10.82;7.07;;;;;;;9.81;100.00;93211.66;2573851;22;20131;-84
2023/05/30 03:00:50;;;;;;;8.25;5.90;;;;;;;9.82;100.00;93207.81;2574710;22;20004;-85
2023/05/30 03:02:00;;;;;;;10.15;6.03;;;;;;;9.79;100.00;93215.91;2597764;22;20000;-83
2023/05/30 03:03:15;;;;;;;12.48;6.28;;;;;;;9.80;100.00;93218.16;2595630;22;20007;-84
2023/05/30 03:04:46;;;;;;;8.70;6.10;;;;;;;9.82;100.00;93207.81;2589019;22;20433;-84
2023/05/30 03:06:04;;;;;;;10.77;6.68;;;;;;;9.80;100.00;93204.81;2609154;22;20419;-85
2023/05/30 03:07:17;;;;;;;11.35;6.43;;;;;;;9.81;100.00;93206.31;2595702;22;20008;-84
2023/05/30 03:08:35;;;;;;;11.82;6.95;;;;;;;9.82;100.00;93204.38;2575246;22;20011;-82
2023/05/30 03:09:46;;;;;;;8.52;5.80;;;;;;;9.77;100.00;93199.53;2595596;22;20269;-83
2023/05/30 03:11:08;;;;;;;10.07;6.28;;;;;;;9.79;100.00;93205.22;2574374;22;20000;-83
2023/05/30 03:12:41;;;;;;;10.05;6.07;;;;;;;9.76;100.00;93204.13;2579512;22;20007;-83
2023/05/30 03:13:51;;;;;;;12.43;6.88;;;;;;;9.74;100.00;93203.00;2584303;22;20347;-84
2023/05/30 03:15:09;;;;;;;11.60;6.93;;;;;;;9.74;100.00;93201.09;2574065;22;20091;-85
2023/05/30 03:16:20;;;;;;;9.57;6.28;;;;;;;9.74;100.00;93203.75;2577489;22;20008;-83
2023/05/30 03:17:30;;;;;;;9.38;6.03;;;;;;;9.70;100.00;93208.44;2585254;22;20012;-83
2023/05/30 03:18:37;;;;;;;;;;;;;;;9.71;100.00;93209.94;2575304;22;20067;-84
2023/05/30 03:20:06;;;;;;;11.35;7.10;;;;;;;9.72;100.00;93208.75;2584451;22;19907;-84
2023/05/30 03:21:17;;;;;;;11.80;6.63;;;;;;;9.77;100.00;93216.28;2594930;22;20007;-82
2023/05/30 03:22:26;;;;;;;12.95;6.00;;;;;;;9.67;100.00;93217.25;2584909;22;20475;-84
2023/05/30 03:23:39;;;;;;;11.35;6.75;;;;;;;9.75;100.00;93212.53;2597511;22;20004;-83
2023/05/30 03:24:51;;;;;;;11.55;6.45;;;;;;;9.73;100.00;93212.19;2585398;22;20004;-82
2023/05/30 03:26:07;;;;;;;11.30;6.53;;;;;;;9.71;100.00;93222.53;2587362;22;20099;-82
2023/05/30 03:27:16;;;;;;;10.10;6.40;;;;;;;9.60;100.00;93225.34;2586116;22;20423;-82
2023/05/30 03:28:26;;;;;;;9.82;6.45;;;;;;;9.58;100.00;93230.34;2586643;22;20004;-83
2023/05/30 03:29:35;;;;;;;11.80;6.53;;;;;;;9.52;100.00;93230.03;2584768;22;20004;-84
2023/05/30 03:30:50;;;;;;;14.18;6.97;;;;;;;9.50;100.00;93224.38;2586383;22;20030;-84
2023/05/30 03:32:00;;;;;;;10.80;6.60;;;;;;;9.48;100.00;93229.38;2572198;23;20004;-82
2023/05/30 03:33:28;;;;;;;15.23;6.28;;;;;;;9.50;100.00;93236.97;2558642;23;20407;-81
2023/05/30 03:34:38;;;;;;;15.98;7.22;;;;;;;9.45;100.00;93224.84;2578456;22;20094;-81
2023/05/30 03:35:49;;;;;;;10.13;6.95;;;;;;;9.45;100.00;93224.84;2569686;23;20004;-82
2023/05/30 03:37:00;;;;;;;11.90;6.72;;;;;;;9.42;100.00;93222.22;2571381;22;20031;-84
2023/05/30 03:38:10;;;;;;;12.75;6.95;;;;;;;9.41;100.00;93213.47;2582221;22;20185;-82
2023/05/30 03:39:23;;;;;;;15.35;7.10;;;;;;;9.42;100.00;93212.28;2569292;23;20005;-85
2023/05/30 03:40:32;;;;;;;9.32;6.53;;;;;;;9.44;100.00;93211.88;2571835;22;20393;-83
2023/05/30 03:41:42;;;;;;;11.23;6.40;;;;;;;9.41;100.00;93218.78;2592782;22;20399;-82
2023/05/30 03:42:52;;;;;;;11.93;7.30;;;;;;;9.46;100.00;93220.25;2580311;22;20004;-83
2023/05/30 03:44:24;;;;;;;12.80;7.25;;;;;;;9.35;100.00;93228.44;2559339;23;20490;-82
2023/05/30 03:45:32;;;;;;;12.65;7.20;;;;;;;9.39;100.00;93228.34;2567704;23;20015;-85
2023/05/30 03:46:48;;;;;;;10.00;7.05;;;;;;;9.41;100.00;93220.72;2570495;22;20099;-85
2023/05/30 03:48:01;;;;;;;10.80;6.50;;;;;;;9.42;100.00;93217.63;2570244;23;20503;-84
2023/05/30 03:49:10;;;;;;;14.02;6.75;;;;;;;9.43;100.00;93223.72;2569839;23;20532;-83
2023/05/30 03:50:31;;;;;;;13.82;7.15;;;;;;;9.43;100.00;93218.38;2569345;23;20416;-85
2023/05/30 03:51:56;;;;;;;9.50;6.78;;;;;;;9.44;100.00;93225.22;2575454;22;20030;-81
2023/05/30 03:53:05;;;;;;;11.13;7.13;;;;;;;9.46;100.00;93225.59;2585278;22;20007;-85
2023/05/30 03:54:19;;;;;;;11.73;6.95;;;;;;;9.46;100.00;93220.25;2581757;22;20028;-83
2023/05/30 03:56:16;;;;;;;14.25;6.75;;;;;;;9.50;100.00;93216.38;2570283;23;20039;-85
2023/05/30 03:57:22;;;;;;;15.55;7.20;;;;;;;9.47;100.00;93225.16;2587409;22;20038;-80
2023/05/30 03:58:31;;;;;;;13.95;7.32;;;;;;;9.48;100.00;93221.38;2581205;22;20359;-83
2023/05/30 03:59:41;;;;;;;11.35;6.82;;;;;;;9.50;100.00;93224.38;2581621;22;20423;-81
2023/05/30 04:01:30;;;;;;;11.13;6.63;;;;;;;9.52;100.00;93226.63;2581864;22;20008;-83
2023/05/30 04:02:44;;;;;;;10.55;6.75;;;;;;;9.54;100.00;93226.97;2577191;23;20379;-82
2023/05/30 04:03:53;;;;;;;10.68;6.25;;;;;;;9.53;100.00;93225.47;2572374;22;20000;-87
2023/05/30 04:05:03;;;;;;;11.95;6.88;;;;;;;9.54;100.00;93222.41;2581517;22;20011;-82
2023/05/30 04:06:41;;;;;;;12.88;6.57;;;;;;;9.49;100.00;93225.53;2569569;23;20091;-83
2023/05/30 04:08:19;;;;;;;10.85;7.15;;;;;;;9.46;100.00;93229.00;2570465;23;20011;-84
2023/05/30 04:09:30;;;;;;;10.18;6.95;;;;;;;9.46;100.00;93237.00;2583144;22;20087;-81
2023/05/30 04:10:40;;;;;;;13.70;6.72;;;;;;;9.50;100.00;93234.28;2581537;22;20014;-83
2023/05/30 04:11:50;;;;;;;9.73;6.85;;;;;;;9.50;100.00;93236.97;2579825;23;20011;-84
2023/05/30 04:13:02;;;;;;;11.07;7.03;;;;;;;9.48;100.00;93240.03;2582219;22;20004;-82
2023/05/30 04:14:49;;;;;;;15.10;7.65;;;;;;;9.49;100.00;93241.53;2580092;23;20031;-83
2023/05/30 04:16:01;;;;;;;16.58;7.10;;;;;;;9.54;100.00;93243.75;2574430;23;20063;-82
2023/05/30 04:17:43;;;;;;;12.50;6.93;;;;;;;9.56;100.00;93246.00;2551503;23;20009;-82
2023/05/30 04:19:31;;;;;;;12.10;7.43;;;;;;;9.60;100.00;93244.03;2578044;22;20004;-85
2023/05/30 04:20:50;;;;;;;17.35;6.68;;;;;;;9.64;100.00;93246.66;2584957;22;20029;-82
2023/05/30 04:22:13;;;;;;;12.82;7.38;;;;;;;9.68;100.00;93236.66;2564186;23;20424;-82
2023/05/30 04:23:23;;;;;;;12.25;6.93;;;;;;;9.67;100.00;93245.84;2558536;23;20099;-85
2023/05/30 04:24:35;;;;;;;11.75;6.72;;;;;;;9.66;100.00;93242.44;2554959;23;20009;-83
2023/05/30 04:25:47;;;;;;;19.17;7.28;;;;;;;9.69;100.00;93243.50;2567062;22;20363;-84
2023/05/30 04:27:06;;;;;;;9.85;6.70;;;;;;;9.77;100.00;93250.25;2565405;23;20215;-84
2023/05/30 04:28:48;;;;;;;8.98;6.55;;;;;;;9.75;100.00;93252.59;2570031;22;20000;-81
2023/05/30 04:30:22;;;;;;;10.57;6.95;;;;;;;9.81;100.00;93248.28;2571755;23;20181;-84
2023/05/30 04:31:34;;;;;;;14.20;6.88;;;;;;;9.81;100.00;93246.34;2577306;22;20110;-80
2023/05/30 04:33:08;;;;;;;13.32;7.22;;;;;;;9.87;100.00;93253.91;2565595;23;20004;-83
2023/05/30 04:34:17;;;;;;;14.23;7.03;;;;;;;9.87;100.00;93248.56;2575426;22;20004;-85
2023/05/30 04:35:30;;;;;;;17.73;8.02;;;;;;;9.93;100.00;93254.94;2564691;23;20017;-82
2023/05/30 04:37:06;;;;;;;14.60;7.53;;;;;;;10.02;100.00;93245.25;2568280;22;20004;-82
2023/05/30 04:38:22;;;;;;;19.13;7.57;;;;;;;10.11;100.00;93251.97;2582952;22;20007;-85
2023/05/30 04:39:32;;;;;;;14.65;7.30;;;;;;;10.09;100.00;93250.44;2567016;23;20038;-83
2023/05/30 04:40:38;;;;;;;;;;;;;;;10.05;100.00;93257.00;2555026;23;20099;-82
2023/05/30 04:41:44;;;;;;;11.35;6.88;;;;;;;10.08;100.00;93262.28;2553546;23;20521;-83
2023/05/30 04:42:53;;;;;;;12.80;7.05;;;;;;;10.12;100.00;93256.16;2566844;22;20008;-83
2023/05/30 04:44:17;;;;;;;12.75;7.78;;;;;;;10.09;100.00;93263.03;2565323;23;20004;-83
2023/05/30 04:46:00;;;;;;;16.77;7.50;;;;;;;10.10;100.00;93256.56;2585357;22;20033;-84
2023/05/30 04:47:29;;;;;;;13.85;7.20;;;;;;;10.10;100.00;93256.56;2579207;22;20020;-84
2023/05/30 04:49:26;;;;;;;14.40;7.90;;;;;;;10.19;100.00;93253.34;2563036;23;20070;-83
2023/05/30 04:50:52;;;;;;;11.85;6.97;;;;;;;10.19;100.00;93253.34;2564600;23;20428;-82
2023/05/30 04:52:20;;;;;;;16.08;7.65;;;;;;;10.21;100.00;93267.03;2582791;22;20008;-82
2023/05/30 04:55:18;;;;;;;15.48;6.65;;;;;;;10.27;100.00;93266.19;2566552;22;20165;-83
2023/05/30 04:56:26;;;;;;;15.27;6.70;;;;;;;10.36;100.00;93271.00;2564672;23;20012;-84
2023/05/30 04:57:30;;;;;;;12.15;7.30;;;;;;;10.38;100.00;93260.66;2554818;23;20009;-83
2023/05/30 04:58:33;;;;;;;16.35;7.75;;;;;;;10.41;100.00;93264.44;2552968;23;20051;-83
2023/05/30 04:59:35;;;;;;;10.88;7.15;;;;;;;10.42;100.00;93260.59;2553083;23;20012;-83
2023/05/30 05:00:40;;;;;;;12.68;7.22;;;;;;;10.47;100.00;93263.53;2563672;22;20008;-81
2023/05/30 05:01:56;;;;;;;15.52;7.10;;;;;;;10.49;100.00;93260.44;2564873;23;20086;-85
2023/05/30 05:03:04;;;;;;;14.77;7.43;;;;;;;10.47;100.00;93262.78;2570848;22;20528;-82
2023/05/30 05:04:11;;;;;;;13.63;7.80;;;;;;;10.53;100.00;93264.56;2578779;22;20038;-83
2023/05/30 05:05:20;;;;;;;15.43;7.45;;;;;;;10.54;100.00;93271.44;2564800;23;20000;-82
2023/05/30 05:06:27;;;;;;;14.25;7.30;;;;;;;10.59;100.00;93270.19;2565581;23;20083;-83
2023/05/30 05:07:35;;;;;;;12.68;7.80;;;;;;;10.62;100.00;93268.59;2578040;22;20655;-85
2023/05/30 05:08:46;;;;;;;13.52;7.55;;;;;;;10.66;100.00;93274.63;2566229;23;20016;-84
2023/05/30 05:09:52;;;;;;;14.90;7.85;;;;;;;10.74;100.00;93271.41;2580086;22;20004;-83
2023/05/30 05:10:56;;;;;;;12.65;7.40;;;;;;;10.75;100.00;93274.84;2577280;22;20015;-83
2023/05/30 05:12:03;;;;;;;12.40;7.30;;;;;;;10.77;100.00;93275.19;2564633;23;20004;-84
2023/05/30 05:13:25;;;;;;;12.63;7.30;;;;;;;10.75;100.00;93272.16;2556319;23;20060;-84
2023/05/30 05:14:51;;;;;;;17.80;7.65;;;;;;;10.78;100.00;93276.69;2559236;23;20008;-82
2023/05/30 05:16:20;;;;;;;12.30;6.93;;;;;;;10.79;100.00;93270.16;2578378;22;20019;-84
2023/05/30 05:17:48;;;;;;;17.02;7.28;;;;;;;10.86;100.00;93269.28;2569400;23;20439;-81
2023/05/30 05:19:25;;;;;;;14.38;7.80;;;;;;;10.91;100.00;93268.78;2574643;22;20479;-84
2023/05/30 05:20:59;;;;;;;15.93;7.05;;;;;;;10.97;100.00;93277.81;2592401;22;20515;-84
2023/05/30 05:22:06;;;;;;;16.40;7.70;;;;;;;11.02;100.00;93277.38;2557555;23;20130;-83
2023/05/30 05:23:11;;;;;;;15.38;7.60;;;;;;;11.00;100.00;93277.75;2554418;23;20361;-84
2023/05/30 05:24:22;;;;;;;18.42;7.90;;;;;;;11.09;100.00;93283.28;2553720;23;20009;-85
2023/05/30 05:25:26;;;;;;;13.02;8.05;;;;;;;11.10;100.00;93281.38;2580146;22;20008;-85
2023/05/30 05:26:29;;;;;;;25.55;9.35;;;;;;;11.09;100.00;93282.53;2588736;22;20033;-80
2023/05/30 05:27:39;;;;;;;18.52;7.40;;;;;;;11.13;100.00;93291.25;2564764;23;20016;-83
2023/05/30 05:28:50;;;;;;;16.13;8.02;;;;;;;11.18;100.00;93287.34;2567419;22;20004;-86
2023/05/30 05:29:52;;;;;;;12.75;7.90;;;;;;;11.17;100.00;93286.59;2566351;23;20371;-83
2023/05/30 05:30:58;;;;;;;14.20;7.70;;;;;;;11.20;100.00;93282.34;2563974;22;20007;-82
2023/05/30 05:32:10;;;;;;;14.10;7.60;;;;;;;11.23;100.00;93274.22;2577576;22;20451;-85
2023/05/30 05:33:15;;;;;;;17.00;8.10;;;;;;;11.33;100.00;93275.16;2578867;22;20010;-83
2023/05/30 05:34:44;;;;;;;17.60;8.18;;;;;;;11.31;100.00;93283.59;2589646;22;20018;-83
2023/05/30 05:35:52;;;;;;;23.00;8.38;;;;;;;11.34;100.00;93285.44;2589633;22;20052;-83
2023/05/30 05:36:54;;;;;;;13.57;7.72;;;;;;;11.39;100.00;93289.56;2565631;23;20202;-85
2023/05/30 05:38:29;;;;;;;14.75;7.82;;;;;;;11.39;100.00;93289.56;2565269;22;20136;-85
2023/05/30 05:39:43;;;;;;;14.40;7.82;;;;;;;11.48;100.00;93279.03;2583992;22;20022;-84
2023/05/30 05:40:44;;;;;;;13.85;7.95;;;;;;;11.49;100.00;93283.19;2578687;22;20086;-82
2023/05/30 05:41:51;;;;;;;24.20;8.40;;;;;;;11.60;100.00;93283.72;2576602;23;20602;-85
2023/05/30 05:42:56;;;;;;;20.38;8.60;;;;;;;11.49;100.00;93280.53;2566586;22;20012;-85
2023/05/30 05:44:06;;;;;;;21.50;8.52;;;;;;;11.54;100.00;93284.63;2565045;23;20050;-82
2023/05/30 05:45:11;;;;;;;;;;;;;;;11.54;100.00;93285.38;2568843;22;20525;-82
2023/05/30 05:46:15;;;;;;;14.65;8.13;;;;;;;11.46;100.00;93285.97;2565050;23;19908;-82
2023/05/30 05:47:33;;;;;;;16.30;7.90;;;;;;;11.51;100.00;93294.25;2552908;23;20452;-84
2023/05/30 05:48:40;;;;;;;17.05;8.50;;;;;;;11.50;100.00;93290.09;2567858;23;20012;-82
2023/05/30 05:49:44;;;;;;;14.52;8.43;;;;;;;11.58;100.00;93291.41;2565899;23;20008;-82
2023/05/30 05:50:52;;;;;;;24.50;8.45;;;;;;;11.50;100.00;93291.97;2564895;22;20007;-85
2023/05/30 05:51:57;;;;;;;17.65;8.50;;;;;;;11.49;100.00;93285.88;2590874;22;20011;-83
2023/05/30 05:53:03;;;;;;;17.15;8.02;;;;;;;11.68;100.00;93294.28;2600690;22;20053;-84
2023/05/30 05:54:19;;;;;;;17.40;8.15;;;;;;;11.63;100.00;93290.16;2565132;23;20439;-81
2023/05/30 05:55:24;;;;;;;14.95;7.95;;;;;;;11.67;100.00;93288.16;2579992;22;20051;-83
2023/05/30 05:56:39;;;;;;;17.10;9.02;;;;;;;11.65;100.00;93297.78;2565318;23;20119;-82
2023/05/30 05:57:47;;;;;;;21.35;8.82;;;;;;;11.61;100.00;93295.19;2557588;23;20011;-84
2023/05/30 05:58:56;;;;;;;18.02;8.57;;;;;;;11.59;100.00;93292.19;2554564;23;20005;-83
2023/05/30 06:00:05;;;;;;;16.45;8.45;;;;;;;11.57;100.00;93307.88;2578401;22;20012;-80
2023/05/30 06:01:14;;;;;;;16.30;8.60;;;;;;;11.74;100.00;93306.00;2565791;23;20034;-84
2023/05/30 06:02:15;;;;;;;14.57;8.43;;;;;;;11.81;100.00;93309.25;2566887;22;20001;-84
2023/05/30 06:03:25;;;;;;;17.92;8.68;;;;;;;11.80;100.00;93298.94;2564024;23;20011;-82
2023/05/30 06:04:34;;;;;;;19.30;8.98;;;;;;;11.83;100.00;93295.47;2578552;22;20446;-82
2023/05/30 06:05:38;;;;;;;23.20;8.80;;;;;;;11.75;100.00;93294.84;2578497;22;20087;-82
2023/05/30 06:06:40;;;;;;;17.58;8.23;;;;;;;11.78;100.00;93295.94;2577500;22;20525;-81
2023/05/30 06:07:42;;;;;;;15.60;8.27;;;;;;;11.91;100.00;93294.13;2564458;23;20617;-84
2023/05/30 06:08:46;;;;;;;19.17;9.00;;;;;;;11.97;100.00;93287.09;2564714;22;20004;-83
2023/05/30 06:09:47;;;;;;;15.60;8.52;;;;;;;11.96;100.00;93298.22;2577518;22;20526;-82
2023/05/30 06:10:48;;;;;;;17.90;8.82;;;;;;;12.00;100.00;93296.22;2576318;22;20008;-84
2023/05/30 06:11:50;;;;;;;14.52;8.45;;;;;;;12.02;100.00;93299.22;2588765;22;20030;-82
2023/05/30 06:12:51;;;;;;;15.98;8.30;;;;;;;12.00;100.00;93302.34;2577148;22;20377;-81
2023/05/30 06:13:55;;;;;;;15.18;8.80;;;;;;;11.93;100.00;93299.06;2602324;22;20082;-83